Allensburg, Ohio
Current Conditions -  °F | °C
As of 11:54 PM on Saturday 22 Nov 2014 (Local Time) from KILN Reporting Station
Clear Clear  
Wind Chill: 41°   Ceiling: Unl
Heat Index: 46°   Visibility: 10mi
Dew Point: 32°   Wind: 9mph
Humidity: 58%   Direction: 190°S
Pressure: 30.06"   Gusts: NA
Location:  39.1546°N, 83.569°W
Report Text: KILN 230454Z AUTO 19008KT 10SM CLR 08/00 A3006 RMK AO2 SLP195 T00780000 401331067
Loading
Personal Weather Stations






























Interactive Weather Map New forecast layout! Learn more

10-Day Weather Forecast

Advertisements
Track Severe Weather on mobile